Accueil
METAR-TAF:

METAR-TAF

Aéroports :

Aéroport de Saint-Louis

Saint-Louis, Sénégal

latitude: 16-03N, longitude: 016-27W, altitude: 4 m

Observation

Le bulletin a été fait il y a 28 minutes, à 22:00 UTC
Vent 8 kt de nord/nord-ouest, variant entre nord-ouest et nord/nord-est
Température 19°C
Humidité 94%
Pression 1012 hPa
Visibilité 10 km ou plus
pas de nuages en-dessous de 1500 mètres et pas de cumulonimbus.

METAR: GOSS 202200Z 34008KT 310V030 CAVOK 19/18 Q1012

Heure: 22:28 (22:28 UTC)

Prévision

Le bulletin a été fait il y a 5 heures et 28 minutes, à 17:00 UTC
Prévision valable du 20 à 18 UTC au 21 à 18 UTC
Vent 10 kt de nord/nord-ouest
Visibilité 10 km ou plus
pas de nuages en-dessous de 1500 mètres et pas de cumulonimbus.

TAF: GOSS 201700Z 2018/2118 34010KT CAVOK

Observations et prévisions météorologiques de plus de 4000 aéroports (messages METAR et TAF).

Les stations disponibles sont représentées par des disques jaunes et rouges sur la carte.

Passer la souris dessus pour voir le nom de la station.

Cliquer dessus pour voir les observations et prévisions météorologiques.

Pour changer de carte: cliquez sur les boutons verts avec une croix noire pour zoomer, sur le bouton vert avec un tiret pour effectuer un zoom arrière, ou sur les flèches vertes pour les cartes adjacentes.


METAR-TAF: